createdAt,value
2018-04-11T00:00:33.865Z,81.58
2018-04-11T00:01:33.752Z,81.40
2018-04-11T00:02:33.840Z,81.16
2018-04-11T00:03:33.815Z,80.15
2018-04-11T00:04:33.772Z,79.63
2018-04-11T00:05:33.835Z,79.71
2018-04-11T00:06:33.869Z,79.71
2018-04-11T00:07:33.815Z,79.63
2018-04-11T00:08:33.771Z,79.49
2018-04-11T00:09:33.711Z,79.97
2018-04-11T00:10:33.779Z,80.18
2018-04-11T00:11:33.795Z,80.39
2018-04-11T00:12:33.742Z,80.97
2018-04-11T00:13:33.744Z,80.94
2018-04-11T00:14:33.716Z,81.63
2018-04-11T00:15:33.822Z,82.08
2018-04-11T00:16:33.749Z,82.40
2018-04-11T00:17:33.751Z,82.67
2018-04-11T00:18:33.839Z,82.45
2018-04-11T00:19:33.714Z,82.48
2018-04-11T00:20:33.788Z,82.37
2018-04-11T00:21:33.792Z,82.43
2018-04-11T00:22:33.773Z,82.45
2018-04-11T00:23:33.847Z,82.45
2018-04-11T00:24:33.840Z,82.40
2018-04-11T00:25:33.723Z,82.14
2018-04-11T00:26:33.829Z,82.06
2018-04-11T00:27:33.751Z,82.08
2018-04-11T00:28:33.752Z,82.06
2018-04-11T00:29:33.807Z,82.35
2018-04-11T00:30:33.883Z,82.72
2018-04-11T00:31:33.796Z,82.77
2018-04-11T00:32:33.801Z,82.80
2018-04-11T00:33:33.758Z,83.67
2018-04-11T00:34:33.810Z,83.86
2018-04-11T00:35:33.858Z,84.20
2018-04-11T00:36:33.799Z,84.36
2018-04-11T00:37:33.912Z,84.39
2018-04-11T00:38:33.788Z,84.44
2018-04-11T00:39:33.897Z,85.56
2018-04-11T00:40:33.819Z,86.41
2018-04-11T00:41:33.817Z,87.05
2018-04-11T00:42:33.825Z,87.56
2018-04-11T00:43:33.859Z,87.59
2018-04-11T00:44:33.863Z,87.72
2018-04-11T00:45:33.880Z,88.33
2018-04-11T00:46:33.896Z,88.87
2018-04-11T00:47:33.895Z,89.37
2018-04-11T00:48:33.859Z,89.72
2018-04-11T00:49:33.861Z,90.02
2018-04-11T00:50:33.927Z,90.23
2018-04-11T00:51:33.840Z,90.53
2018-04-11T00:52:33.770Z,90.61
2018-04-11T00:53:33.897Z,90.66
2018-04-11T00:54:33.901Z,90.55
2018-04-11T00:55:33.852Z,90.47
2018-04-11T00:56:33.827Z,90.34
2018-04-11T00:57:33.836Z,90.50
2018-04-11T00:58:33.869Z,90.96
2018-04-11T00:59:33.927Z,91.30
2018-04-11T01:00:33.849Z,91.92
2018-04-11T01:01:33.905Z,92.40
2018-04-11T01:02:33.897Z,92.95
2018-04-11T01:03:33.909Z,93.26
2018-04-11T01:04:33.870Z,93.37
2018-04-11T01:05:33.904Z,93.62
2018-04-11T01:06:33.772Z,94.07
2018-04-11T01:07:33.875Z,94.48
2018-04-11T01:08:33.874Z,94.80
2018-04-11T01:09:33.874Z,95.12
2018-04-11T01:10:33.902Z,95.50
2018-04-11T01:11:33.838Z,95.61
2018-04-11T01:12:33.844Z,95.61
2018-04-11T01:13:33.847Z,95.61
2018-04-11T01:14:33.905Z,95.66
2018-04-11T01:15:33.841Z,95.83
2018-04-11T01:16:33.800Z,95.98
2018-04-11T01:17:33.876Z,96.26
2018-04-11T01:18:33.887Z,96.39
2018-04-11T01:19:33.872Z,96.47
2018-04-11T01:20:33.800Z,96.69
2018-04-11T01:21:33.875Z,96.85
2018-04-11T01:22:33.805Z,97.04
2018-04-11T01:23:33.797Z,97.26
2018-04-11T01:24:33.799Z,97.50
2018-04-11T01:25:33.805Z,97.61
2018-04-11T01:26:33.878Z,97.61
2018-04-11T01:27:33.803Z,97.61
2018-04-11T01:28:33.879Z,97.83
2018-04-11T01:29:33.954Z,97.93
2018-04-11T01:30:33.865Z,97.88
2018-04-11T01:31:33.849Z,97.88
2018-04-11T01:32:33.888Z,97.96
2018-04-11T01:33:33.824Z,97.93
2018-04-11T01:34:33.928Z,98.31
2018-04-11T01:35:33.822Z,98.12
2018-04-11T01:36:33.869Z,98.23
2018-04-11T01:37:33.926Z,97.96
2018-04-11T01:38:33.791Z,98.02
2018-04-11T01:39:33.949Z,98.12
2018-04-11T01:40:33.871Z,98.15
2018-04-11T01:41:33.891Z,98.10
2018-04-11T01:42:33.950Z,98.10
2018-04-11T01:43:33.871Z,98.02
2018-04-11T01:44:33.965Z,97.91
2018-04-11T01:45:33.898Z,97.88
2018-04-11T01:46:33.894Z,97.88
2018-04-11T01:47:33.932Z,97.69
2018-04-11T01:48:33.913Z,97.74
2018-04-11T01:49:33.819Z,97.66
2018-04-11T01:50:33.816Z,97.58
2018-04-11T01:51:33.934Z,97.64
2018-04-11T01:52:33.835Z,97.96
2018-04-11T01:53:33.866Z,98.07
2018-04-11T01:54:33.900Z,98.15
2018-04-11T01:55:33.935Z,98.23
2018-04-11T01:56:33.840Z,98.18
2018-04-11T01:57:33.882Z,98.12
2018-04-11T01:58:33.931Z,98.37
2018-04-11T01:59:33.926Z,98.21
2018-04-11T02:00:33.903Z,98.40
2018-04-11T02:01:33.876Z,98.31
2018-04-11T02:02:33.832Z,98.34
2018-04-11T02:03:33.883Z,98.23
2018-04-11T02:04:33.877Z,98.29
2018-04-11T02:05:33.933Z,98.26
2018-04-11T02:06:33.887Z,98.40
2018-04-11T02:07:33.911Z,98.72
2018-04-11T02:08:33.911Z,98.69
2018-04-11T02:09:33.910Z,98.69
2018-04-11T02:10:33.885Z,98.61
2018-04-11T02:11:33.920Z,98.61
2018-04-11T02:12:33.855Z,98.59
2018-04-11T02:13:33.889Z,98.61
2018-04-11T02:14:33.850Z,98.80
2018-04-11T02:15:33.819Z,98.94
2018-04-11T02:16:33.935Z,99.04
2018-04-11T02:17:33.889Z,99.21
2018-04-11T02:18:33.890Z,99.34
2018-04-11T02:19:33.877Z,99.40
2018-04-11T02:20:33.845Z,99.37
2018-04-11T02:21:33.887Z,99.40
2018-04-11T02:22:33.923Z,99.10
2018-04-11T02:23:33.919Z,98.94
2018-04-11T02:24:33.918Z,98.75
2018-04-11T02:25:33.960Z,98.48
2018-04-11T02:26:33.847Z,98.34
2018-04-11T02:27:33.905Z,98.18
2018-04-11T02:28:33.984Z,98.18
2018-04-11T02:29:33.856Z,98.07
2018-04-11T02:30:33.876Z,98.15
2018-04-11T02:31:33.991Z,98.02
2018-04-11T02:32:33.856Z,97.96
2018-04-11T02:33:33.928Z,97.88
2018-04-11T02:34:33.931Z,97.83
2018-04-11T02:35:33.953Z,97.72
2018-04-11T02:36:33.859Z,97.66
2018-04-11T02:37:33.864Z,97.83
2018-04-11T02:38:33.860Z,98.21
2018-04-11T02:39:33.860Z,98.10
2018-04-11T02:40:33.863Z,98.37
2018-04-11T02:41:33.936Z,98.37
2018-04-11T02:42:33.929Z,98.40
2018-04-11T02:43:33.943Z,98.12
2018-04-11T02:44:33.820Z,98.02
2018-04-11T02:45:33.942Z,97.99
2018-04-11T02:46:33.865Z,97.88
2018-04-11T02:47:33.886Z,97.77
2018-04-11T02:48:33.909Z,97.74
2018-04-11T02:49:33.910Z,97.72
2018-04-11T02:50:33.907Z,97.69
2018-04-11T02:51:33.900Z,97.72
2018-04-11T02:52:33.885Z,97.66
2018-04-11T02:53:33.995Z,97.88
2018-04-11T02:54:33.876Z,98.15
2018-04-11T02:55:33.909Z,98.55
2018-04-11T02:56:33.874Z,98.77
2018-04-11T02:57:33.908Z,98.88
2018-04-11T02:58:33.937Z,98.96
2018-04-11T02:59:33.837Z,99.23
2018-04-11T03:00:33.806Z,99.37
2018-04-11T03:01:33.804Z,99.51
2018-04-11T03:02:33.820Z,99.59
2018-04-11T03:03:33.864Z,99.53
2018-04-11T03:04:33.880Z,99.59
2018-04-11T03:05:33.911Z,99.64
2018-04-11T03:06:33.931Z,99.62
2018-04-11T03:07:33.936Z,99.64
2018-04-11T03:08:33.938Z,99.62
2018-04-11T03:09:33.947Z,99.62
2018-04-11T03:10:33.867Z,99.81
2018-04-11T03:11:33.886Z,99.75
2018-04-11T03:12:33.991Z,99.96
2018-04-11T03:13:33.877Z,99.99
2018-04-11T03:14:33.880Z,99.99
2018-04-11T03:15:34.009Z,99.99
2018-04-11T03:16:33.892Z,99.99
2018-04-11T03:17:33.921Z,99.99
2018-04-11T03:18:33.895Z,99.99
2018-04-11T03:19:33.823Z,99.99
2018-04-11T03:20:33.937Z,99.99
2018-04-11T03:21:33.890Z,99.99
2018-04-11T03:22:33.826Z,99.99
2018-04-11T03:23:33.951Z,99.99
2018-04-11T03:24:33.917Z,99.99
2018-04-11T03:25:33.827Z,99.99
2018-04-11T03:26:33.914Z,99.99
2018-04-11T03:27:33.942Z,99.99
2018-04-11T03:28:33.936Z,99.99
2018-04-11T03:29:33.971Z,99.99
2018-04-11T03:30:33.895Z,99.99
2018-04-11T03:31:33.891Z,99.99
2018-04-11T03:32:33.897Z,99.99
2018-04-11T03:33:33.908Z,99.99
2018-04-11T03:34:33.967Z,99.99
2018-04-11T03:35:33.896Z,99.99
2018-04-11T03:36:33.973Z,99.99
2018-04-11T03:37:33.967Z,99.99
2018-04-11T03:38:33.895Z,99.99
2018-04-11T03:39:33.855Z,99.99
2018-04-11T03:40:33.957Z,99.99
2018-04-11T03:41:33.902Z,99.99
2018-04-11T03:42:33.910Z,99.99
2018-04-11T03:43:33.953Z,99.99
2018-04-11T03:44:33.907Z,99.99
2018-04-11T03:45:33.862Z,99.99
2018-04-11T03:46:33.867Z,99.99
2018-04-11T03:47:33.928Z,99.99
2018-04-11T03:48:33.840Z,99.99
2018-04-11T03:49:33.968Z,99.99
2018-04-11T03:50:33.947Z,99.99
2018-04-11T03:51:34.013Z,99.99
2018-04-11T03:52:34.011Z,99.99
2018-04-11T03:53:34.008Z,99.99
2018-04-11T03:54:33.877Z,99.99
2018-04-11T03:55:33.979Z,99.99
2018-04-11T03:56:33.911Z,99.99
2018-04-11T03:57:34.001Z,99.99
2018-04-11T03:58:33.957Z,99.99
2018-04-11T03:59:33.999Z,99.99
2018-04-11T04:00:33.912Z,99.99
2018-04-11T04:01:33.937Z,99.99
2018-04-11T04:02:33.908Z,99.99
2018-04-11T04:03:33.911Z,99.99
2018-04-11T04:04:33.984Z,99.99
2018-04-11T04:05:34.004Z,99.99
2018-04-11T04:06:33.988Z,99.99
2018-04-11T04:07:33.948Z,99.99
2018-04-11T04:08:33.969Z,99.99
2018-04-11T04:09:33.952Z,99.99
2018-04-11T04:10:34.045Z,99.99
2018-04-11T04:11:33.889Z,99.99
2018-04-11T04:12:34.048Z,99.99
2018-04-11T04:13:33.913Z,99.99
2018-04-11T04:14:33.911Z,99.99
2018-04-11T04:15:33.893Z,99.99
2018-04-11T04:16:33.987Z,99.99
2018-04-11T04:17:34.015Z,99.99
2018-04-11T04:18:34.017Z,99.99
2018-04-11T04:19:33.913Z,99.99
2018-04-11T04:20:34.016Z,99.99
2018-04-11T04:21:33.989Z,99.99
2018-04-11T04:22:33.963Z,99.99
2018-04-11T04:23:33.963Z,99.99
2018-04-11T04:24:34.051Z,99.99
2018-04-11T04:25:33.956Z,99.99
2018-04-11T04:26:33.969Z,99.99
2018-04-11T04:27:33.991Z,99.99
2018-04-11T04:28:34.001Z,99.99
2018-04-11T04:29:33.927Z,99.99
2018-04-11T04:30:34.091Z,99.99
2018-04-11T04:31:33.994Z,99.99
2018-04-11T04:32:33.997Z,99.99
2018-04-11T04:33:34.030Z,99.99
2018-04-11T04:34:34.057Z,99.99
2018-04-11T04:35:34.020Z,99.99
2018-04-11T04:36:34.061Z,99.99
2018-04-11T04:37:33.995Z,99.99
2018-04-11T04:38:33.969Z,99.99
2018-04-11T04:39:33.933Z,99.94
2018-04-11T04:40:34.002Z,99.53
2018-04-11T04:41:34.026Z,99.34
2018-04-11T04:42:34.025Z,98.83
2018-04-11T04:43:34.021Z,98.45
2018-04-11T04:44:33.983Z,97.88
2018-04-11T04:45:33.967Z,97.64
2018-04-11T04:46:34.040Z,97.61
2018-04-11T04:47:33.973Z,97.64
2018-04-11T04:48:34.074Z,97.66
2018-04-11T04:49:33.981Z,97.69
2018-04-11T04:50:33.933Z,97.77
2018-04-11T04:51:34.025Z,97.91
2018-04-11T04:52:34.018Z,97.83
2018-04-11T04:53:33.935Z,97.85
2018-04-11T04:54:34.010Z,97.69
2018-04-11T04:55:33.973Z,97.47
2018-04-11T04:56:33.915Z,97.34
2018-04-11T04:57:33.977Z,97.21
2018-04-11T04:58:33.919Z,97.15
2018-04-11T04:59:33.931Z,97.04
2018-04-11T05:00:33.978Z,97.15
2018-04-11T05:01:33.953Z,97.07
2018-04-11T05:02:33.950Z,96.85
2018-04-11T05:03:34.034Z,96.77
2018-04-11T05:04:34.014Z,96.64
2018-04-11T05:05:34.057Z,96.34
2018-04-11T05:06:33.985Z,96.26
2018-04-11T05:07:34.127Z,96.17
2018-04-11T05:08:33.922Z,96.09
2018-04-11T05:09:33.981Z,96.07
2018-04-11T05:10:33.988Z,96.13
2018-04-11T05:11:33.937Z,96.13
2018-04-11T05:12:33.937Z,96.15
2018-04-11T05:13:34.024Z,96.09
2018-04-11T05:14:34.043Z,96.09
2018-04-11T05:15:34.025Z,96.07
2018-04-11T05:16:34.020Z,95.94
2018-04-11T05:17:34.034Z,95.66
2018-04-11T05:18:33.992Z,95.42
2018-04-11T05:19:33.984Z,95.28
2018-04-11T05:20:33.960Z,95.07
2018-04-11T05:21:34.048Z,94.86
2018-04-11T05:22:34.056Z,94.75
2018-04-11T05:23:33.996Z,94.69
2018-04-11T05:24:34.054Z,94.64
2018-04-11T05:25:34.054Z,94.56
2018-04-11T05:26:33.935Z,94.53
2018-04-11T05:27:34.031Z,94.48
2018-04-11T05:28:33.964Z,94.42
2018-04-11T05:30:34.060Z,94.37
2018-04-11T05:31:34.011Z,94.34
2018-04-11T05:32:33.935Z,94.34
2018-04-11T05:33:33.949Z,94.31
2018-04-11T05:34:34.089Z,94.26
2018-04-11T05:35:33.970Z,94.29
2018-04-11T05:36:34.076Z,94.18
2018-04-11T05:37:34.001Z,94.10
2018-04-11T05:38:33.960Z,94.10
2018-04-11T05:39:34.059Z,94.21
2018-04-11T05:40:33.974Z,94.18
2018-04-11T05:41:34.029Z,94.21
2018-04-11T05:42:33.911Z,94.21
2018-04-11T05:43:33.945Z,94.23
2018-04-11T05:44:34.030Z,94.31
2018-04-11T05:45:34.030Z,94.21
2018-04-11T05:46:34.032Z,94.02
2018-04-11T05:47:34.035Z,94.07
2018-04-11T05:48:34.034Z,94.10
2018-04-11T05:49:34.036Z,94.02
2018-04-11T05:50:33.976Z,94.04
2018-04-11T05:51:34.045Z,94.29
2018-04-11T05:52:33.972Z,94.34
2018-04-11T05:53:33.976Z,94.40
2018-04-11T05:54:34.046Z,94.34
2018-04-11T05:55:33.975Z,94.23
2018-04-11T05:56:34.048Z,94.12
2018-04-11T05:57:33.977Z,93.48
2018-04-11T05:58:34.091Z,92.86
2018-04-11T05:59:34.050Z,92.62
2018-04-11T06:00:33.979Z,92.54
2018-04-11T06:01:33.952Z,92.46
2018-04-11T06:02:34.048Z,92.30
2018-04-11T06:03:33.978Z,91.90
2018-04-11T06:04:34.000Z,91.60
2018-04-11T06:05:34.133Z,91.65
2018-04-11T06:06:34.041Z,91.76
2018-04-11T06:07:33.974Z,91.86
2018-04-11T06:08:34.049Z,91.82
2018-04-11T06:09:33.997Z,91.44
2018-04-11T06:10:34.056Z,91.38
2018-04-11T06:11:34.118Z,91.25
2018-04-11T06:12:34.081Z,91.36
2018-04-11T06:13:33.993Z,91.33
2018-04-11T06:14:33.994Z,90.45
2018-04-11T06:15:34.055Z,90.34
2018-04-11T06:16:34.054Z,90.28
2018-04-11T06:17:34.060Z,90.13
2018-04-11T06:18:34.059Z,89.62
2018-04-11T06:19:34.059Z,88.97
2018-04-11T06:20:34.142Z,88.79
2018-04-11T06:21:34.055Z,88.65
2018-04-11T06:22:33.984Z,87.90
2018-04-11T06:23:33.982Z,87.82
2018-04-11T06:24:33.986Z,87.93
2018-04-11T06:25:34.056Z,87.59
2018-04-11T06:26:34.030Z,86.97
2018-04-11T06:27:33.980Z,86.25
2018-04-11T06:28:34.051Z,85.16
2018-04-11T06:29:34.056Z,85.30
2018-04-11T06:30:34.061Z,85.32
2018-04-11T06:31:34.062Z,85.08
2018-04-11T06:32:33.988Z,84.44
2018-04-11T06:33:34.063Z,84.15
2018-04-11T06:34:33.972Z,83.36
2018-04-11T06:35:33.976Z,83.44
2018-04-11T06:36:34.060Z,83.83
2018-04-11T06:37:33.998Z,83.40
2018-04-11T06:38:34.024Z,82.88
2018-04-11T06:39:33.977Z,81.98
2018-04-11T06:40:33.996Z,82.03
2018-04-11T06:41:34.133Z,82.96
2018-04-11T06:42:34.113Z,82.51
2018-04-11T06:43:34.109Z,82.00
2018-04-11T06:44:34.001Z,82.06
2018-04-11T06:45:34.110Z,81.18
2018-04-11T06:46:34.074Z,80.49
2018-04-11T06:47:34.057Z,80.65
2018-04-11T06:48:34.075Z,79.97
2018-04-11T06:49:34.047Z,79.23
2018-04-11T06:50:34.076Z,80.10
2018-04-11T06:51:34.076Z,80.39
2018-04-11T06:52:34.071Z,79.55
2018-04-11T06:53:34.066Z,79.55
2018-04-11T06:54:33.996Z,79.63
2018-04-11T06:55:34.076Z,79.36
2018-04-11T06:56:34.076Z,78.47
2018-04-11T06:57:33.951Z,78.91
2018-04-11T06:58:34.080Z,77.44
2018-04-11T06:59:33.999Z,76.83
2018-04-11T07:00:33.959Z,76.07
2018-04-11T07:01:33.958Z,75.62
2018-04-11T07:02:34.015Z,75.60
2018-04-11T07:03:34.047Z,74.40
2018-04-11T07:04:34.089Z,74.63
2018-04-11T07:05:33.961Z,74.84
2018-04-11T07:06:34.006Z,74.08
2018-04-11T07:07:34.086Z,74.08
2018-04-11T07:08:33.996Z,74.21
2018-04-11T07:09:34.089Z,75.10
2018-04-11T07:10:34.023Z,75.29
2018-04-11T07:11:34.091Z,73.79
2018-04-11T07:12:34.027Z,74.76
2018-04-11T07:13:34.095Z,75.29
2018-04-11T07:14:34.027Z,73.69
2018-04-11T07:15:34.100Z,74.11
2018-04-11T07:16:34.064Z,73.22
2018-04-11T07:17:34.028Z,72.04
2018-04-11T07:18:34.102Z,71.89
2018-04-11T07:19:34.032Z,71.91
2018-04-11T07:20:34.097Z,70.89
2018-04-11T07:21:34.133Z,70.74
2018-04-11T07:22:34.037Z,70.29
2018-04-11T07:23:34.132Z,69.67
2018-04-11T07:24:34.160Z,68.81
2018-04-11T07:25:34.131Z,68.99
2018-04-11T07:26:34.040Z,68.11
2018-04-11T07:27:34.125Z,68.06
2018-04-11T07:28:34.065Z,67.25
2018-04-11T07:29:34.022Z,67.80
2018-04-11T07:30:34.105Z,68.19
2018-04-11T07:31:34.043Z,67.72
2018-04-11T07:32:34.039Z,68.19
2018-04-11T07:33:34.109Z,68.32
2018-04-11T07:34:34.132Z,67.64
2018-04-11T07:35:34.084Z,67.39
2018-04-11T07:36:34.105Z,68.71
2018-04-11T07:37:34.063Z,69.54
2018-04-11T07:38:34.043Z,67.96
2018-04-11T07:39:34.090Z,67.96
2018-04-11T07:40:34.109Z,66.22
2018-04-11T07:41:34.108Z,66.33
2018-04-11T07:42:34.069Z,65.50
2018-04-11T07:43:34.121Z,63.64
2018-04-11T07:44:34.031Z,64.44
2018-04-11T07:45:34.078Z,63.87
2018-04-11T07:46:34.067Z,63.33
2018-04-11T07:47:34.082Z,63.10
2018-04-11T07:48:34.072Z,63.46
2018-04-11T07:49:34.075Z,63.13
2018-04-11T07:50:34.071Z,64.13
2018-04-11T07:51:33.996Z,63.20
2018-04-11T07:52:34.115Z,62.99
2018-04-11T07:53:34.108Z,64.36
2018-04-11T07:54:34.151Z,62.58
2018-04-11T07:55:34.022Z,60.84
2018-04-11T07:56:34.055Z,61.35
2018-04-11T07:57:34.025Z,61.43
2018-04-11T07:58:34.058Z,62.58
2018-04-11T07:59:34.053Z,62.02
2018-04-11T08:00:34.054Z,62.77
2018-04-11T08:01:34.055Z,62.07
2018-04-11T08:02:34.127Z,61.94
2018-04-11T08:03:34.117Z,60.99
2018-04-11T08:04:34.119Z,60.78
2018-04-11T08:05:34.121Z,60.58
2018-04-11T08:06:34.128Z,61.30
2018-04-11T08:07:34.093Z,61.12
2018-04-11T08:08:34.060Z,61.46
2018-04-11T08:09:34.125Z,60.20
2018-04-11T08:10:34.057Z,60.84
2018-04-11T08:11:34.130Z,60.66
2018-04-11T08:12:34.012Z,60.40
2018-04-11T08:13:34.222Z,59.89
2018-04-11T08:14:34.061Z,60.22
2018-04-11T08:15:34.028Z,60.22
2018-04-11T08:16:34.063Z,60.20
2018-04-11T08:17:34.129Z,59.92
2018-04-11T08:18:34.066Z,58.74
2018-04-11T08:19:34.132Z,60.12
2018-04-11T08:20:34.090Z,60.20
2018-04-11T08:21:34.128Z,58.84
2018-04-11T08:22:34.041Z,60.61
2018-04-11T08:23:34.093Z,59.32
2018-04-11T08:24:34.048Z,57.33
2018-04-11T08:25:34.060Z,58.12
2018-04-11T08:26:34.137Z,58.38
2018-04-11T08:27:34.125Z,58.23
2018-04-11T08:28:34.073Z,57.26
2018-04-11T08:29:34.091Z,59.68
2018-04-11T08:30:34.129Z,59.86
2018-04-11T08:31:34.034Z,60.45
2018-04-11T08:32:34.130Z,59.00
2018-04-11T08:33:34.013Z,59.71
2018-04-11T08:34:34.139Z,60.55
2018-04-11T08:35:34.008Z,58.94
2018-04-11T08:36:34.101Z,58.96
2018-04-11T08:37:34.078Z,60.14
2018-04-11T08:38:34.135Z,59.12
2018-04-11T08:39:34.008Z,58.87
2018-04-11T08:40:34.147Z,57.84
2018-04-11T08:41:34.081Z,58.38
2018-04-11T08:42:34.151Z,60.20
2018-04-11T08:43:34.082Z,59.20
2018-04-11T08:44:34.147Z,56.49
2018-04-11T08:45:34.153Z,58.12
2018-04-11T08:46:34.152Z,58.66
2018-04-11T08:47:34.083Z,58.68
2018-04-11T08:48:34.150Z,59.15
2018-04-11T08:49:34.083Z,59.32
2018-04-11T08:50:34.171Z,58.20
2018-04-11T08:51:34.119Z,59.17
2018-04-11T08:52:34.149Z,58.81
2018-04-11T08:53:34.157Z,58.30
2018-04-11T08:54:34.128Z,59.00
2018-04-11T08:55:34.108Z,58.87
2018-04-11T08:56:34.083Z,58.46
2018-04-11T08:57:34.106Z,58.43
2018-04-11T08:58:34.130Z,58.61
2018-04-11T08:59:34.094Z,60.22
2018-04-11T09:00:34.187Z,59.35
2018-04-11T09:01:34.077Z,60.48
2018-04-11T09:02:34.183Z,60.78
2018-04-11T09:03:34.097Z,61.71
2018-04-11T09:04:34.124Z,62.58
2018-04-11T09:05:34.129Z,61.63
2018-04-11T09:06:34.194Z,62.07
2018-04-11T09:07:34.193Z,61.09
2018-04-11T09:08:34.160Z,61.97
2018-04-11T09:09:34.189Z,62.99
2018-04-11T09:10:34.179Z,62.99
2018-04-11T09:11:34.121Z,62.02
2018-04-11T09:12:34.139Z,61.35
2018-04-11T09:13:34.162Z,61.27
2018-04-11T09:14:34.185Z,62.07
2018-04-11T09:15:34.136Z,61.66
2018-04-11T09:16:34.170Z,61.04
2018-04-11T09:17:34.168Z,62.35
2018-04-11T09:18:34.073Z,60.33
2018-04-11T09:19:34.131Z,59.32
2018-04-11T09:20:34.101Z,59.89
2018-04-11T09:21:34.168Z,59.45
2018-04-11T09:22:34.100Z,59.68
2018-04-11T09:23:34.129Z,59.09
2018-04-11T09:24:34.105Z,58.53
2018-04-11T09:25:34.172Z,59.25
2018-04-11T09:26:34.107Z,58.61
2018-04-11T09:27:34.178Z,59.20
2018-04-11T09:28:34.111Z,57.08
2018-04-11T09:29:34.179Z,58.10
2018-04-11T09:30:34.175Z,58.46
2018-04-11T09:31:34.193Z,59.25
2018-04-11T09:32:34.174Z,59.48
2018-04-11T09:33:34.200Z,60.14
2018-04-11T09:34:34.098Z,58.68
2018-04-11T09:35:34.157Z,59.28
2018-04-11T09:36:34.179Z,60.20
2018-04-11T09:37:34.077Z,60.22
2018-04-11T09:38:34.187Z,60.81
2018-04-11T09:39:34.184Z,60.71
2018-04-11T09:40:34.148Z,61.17
2018-04-11T09:41:34.191Z,61.14
2018-04-11T09:42:34.145Z,62.84
2018-04-11T09:43:34.208Z,61.35
2018-04-11T09:44:34.207Z,62.22
2018-04-11T09:45:34.179Z,61.89
2018-04-11T09:46:34.200Z,63.35
2018-04-11T09:47:34.088Z,62.74
2018-04-11T09:48:34.187Z,62.82
2018-04-11T09:49:34.145Z,62.46
2018-04-11T09:50:34.165Z,62.38
2018-04-11T09:51:34.155Z,63.30
2018-04-11T09:52:34.088Z,63.30
2018-04-11T09:53:34.148Z,63.66
2018-04-11T09:54:34.157Z,62.46
2018-04-11T09:55:34.220Z,62.50
2018-04-11T09:56:34.202Z,64.13
2018-04-11T09:57:34.190Z,63.92
2018-04-11T09:58:34.159Z,64.52
2018-04-11T09:59:34.176Z,64.00
2018-04-11T10:00:34.203Z,64.02
2018-04-11T10:01:34.191Z,63.90
2018-04-11T10:02:34.101Z,64.00
2018-04-11T10:03:34.195Z,63.20
2018-04-11T10:04:34.162Z,62.74
2018-04-11T10:05:34.200Z,63.23
2018-04-11T10:06:34.159Z,63.43
2018-04-11T10:07:34.175Z,62.74
2018-04-11T10:08:34.218Z,63.49
2018-04-11T10:09:34.223Z,62.61
2018-04-11T10:10:34.156Z,62.48
2018-04-11T10:11:34.203Z,62.14
2018-04-11T10:12:34.157Z,62.38
2018-04-11T10:13:34.108Z,61.58
2018-04-11T10:14:34.104Z,61.38
2018-04-11T10:15:34.113Z,62.12
2018-04-11T10:16:34.139Z,60.63
2018-04-11T10:17:34.091Z,61.04
2018-04-11T10:18:34.109Z,59.37
2018-04-11T10:19:34.139Z,60.17
2018-04-11T10:20:34.120Z,60.76
2018-04-11T10:21:34.233Z,60.71
2018-04-11T10:22:34.207Z,59.86
2018-04-11T10:23:34.243Z,61.12
2018-04-11T10:24:34.208Z,60.05
2018-04-11T10:25:34.112Z,60.27
2018-04-11T10:26:34.110Z,60.33
2018-04-11T10:27:34.215Z,61.09
2018-04-11T10:28:34.239Z,59.89
2018-04-11T10:29:34.113Z,60.20
2018-04-11T10:30:34.176Z,60.71
2018-04-11T10:31:34.247Z,60.20
2018-04-11T10:32:34.244Z,59.78
2018-04-11T10:33:34.261Z,60.40
2018-04-11T10:34:34.136Z,58.66
2018-04-11T10:35:34.126Z,57.74
2018-04-11T10:36:34.180Z,58.43
2018-04-11T10:37:34.248Z,58.46
2018-04-11T10:38:34.244Z,58.17
2018-04-11T10:39:34.185Z,57.33
2018-04-11T10:40:34.219Z,57.74
2018-04-11T10:41:34.276Z,58.04
2018-04-11T10:42:34.121Z,56.03
2018-04-11T10:43:34.193Z,57.33
2018-04-11T10:44:34.192Z,57.61
2018-04-11T10:45:34.125Z,56.31
2018-04-11T10:46:34.247Z,57.10
2018-04-11T10:47:34.262Z,58.10
2018-04-11T10:48:34.204Z,59.40
2018-04-11T10:49:34.181Z,58.33
2018-04-11T10:50:34.131Z,57.69
2018-04-11T10:51:34.194Z,56.97
2018-04-11T10:52:34.229Z,58.68
2018-04-11T10:53:34.244Z,59.32
2018-04-11T10:54:34.271Z,59.92
2018-04-11T10:55:34.359Z,60.63
2018-04-11T10:56:34.200Z,61.53
2018-04-11T10:57:34.262Z,61.46
2018-04-11T10:58:34.185Z,61.63
2018-04-11T10:59:34.268Z,62.20
2018-04-11T11:00:34.246Z,61.78
2018-04-11T11:01:34.200Z,61.22
2018-04-11T11:02:34.236Z,60.17
2018-04-11T11:03:34.189Z,58.61
2018-04-11T11:04:34.235Z,60.43
2018-04-11T11:05:34.254Z,60.78
2018-04-11T11:06:34.235Z,61.06
2018-04-11T11:07:34.216Z,61.14
2018-04-11T11:08:34.236Z,61.66
2018-04-11T11:09:34.236Z,61.53
2018-04-11T11:10:34.194Z,62.66
2018-04-11T11:11:34.273Z,63.02
2018-04-11T11:12:34.162Z,62.25
2018-04-11T11:13:34.199Z,63.56
2018-04-11T11:14:34.179Z,63.41
2018-04-11T11:15:34.160Z,63.07
2018-04-11T11:16:34.181Z,63.56
2018-04-11T11:17:34.216Z,64.23
2018-04-11T11:18:34.217Z,64.44
2018-04-11T11:19:34.215Z,64.67
2018-04-11T11:20:34.148Z,64.98
2018-04-11T11:21:34.164Z,64.78
2018-04-11T11:22:34.170Z,64.42
2018-04-11T11:23:34.258Z,64.26
2018-04-11T11:24:34.154Z,64.67
2018-04-11T11:25:34.151Z,65.37
2018-04-11T11:26:34.190Z,66.01
2018-04-11T11:27:34.244Z,66.12
2018-04-11T11:28:34.139Z,65.34
2018-04-11T11:29:34.243Z,65.73
2018-04-11T11:30:34.201Z,66.33
2018-04-11T11:31:34.192Z,66.97
2018-04-11T11:32:34.255Z,66.92
2018-04-11T11:33:34.254Z,66.14
2018-04-11T11:34:34.187Z,66.43
2018-04-11T11:35:34.259Z,66.79
2018-04-11T11:36:34.263Z,66.35
2018-04-11T11:37:34.189Z,66.53
2018-04-11T11:38:34.187Z,66.69
2018-04-11T11:39:34.256Z,67.23
2018-04-11T11:40:34.190Z,67.93
2018-04-11T11:41:34.239Z,68.06
2018-04-11T11:42:34.258Z,67.98
2018-04-11T11:43:34.280Z,68.01
2018-04-11T11:44:34.296Z,68.50
2018-04-11T11:45:34.227Z,67.28
2018-04-11T11:46:34.287Z,68.24
2018-04-11T11:47:34.170Z,68.06
2018-04-11T11:48:34.287Z,68.84
2018-04-11T11:49:34.306Z,68.89
2018-04-11T11:50:34.285Z,68.99
2018-04-11T11:51:34.174Z,68.91
2018-04-11T11:52:34.266Z,69.23
2018-04-11T11:53:34.180Z,69.59
2018-04-11T11:54:34.309Z,69.75
2018-04-11T11:55:34.248Z,69.46
2018-04-11T11:56:34.295Z,69.98
2018-04-11T11:57:34.334Z,70.43
2018-04-11T11:58:34.293Z,70.95
2018-04-11T11:59:34.274Z,72.28
2018-04-11T12:00:34.232Z,73.35
2018-04-11T12:01:34.228Z,75.05
2018-04-11T12:02:34.166Z,76.73
2018-04-11T12:03:34.254Z,77.49
2018-04-11T12:04:34.209Z,78.78
2018-04-11T12:05:34.261Z,80.55
2018-04-11T12:06:34.235Z,80.87
2018-04-11T12:07:34.172Z,82.40
2018-04-11T12:08:34.198Z,82.80
2018-04-11T12:09:34.263Z,83.54
2018-04-11T12:10:34.144Z,83.65
2018-04-11T12:11:34.285Z,82.56
2018-04-11T12:12:34.298Z,82.93
2018-04-11T12:13:34.175Z,82.75
2018-04-11T12:14:34.210Z,82.82
2018-04-11T12:15:34.282Z,82.61
2018-04-11T12:16:34.285Z,83.78
2018-04-11T12:17:34.283Z,83.99
2018-04-11T12:18:34.214Z,83.91
2018-04-11T12:19:34.214Z,84.09
2018-04-11T12:20:34.287Z,84.52
2018-04-11T12:21:34.249Z,84.47
2018-04-11T12:22:34.325Z,84.58
2018-04-11T12:23:34.181Z,84.68
2018-04-11T12:24:34.311Z,84.23
2018-04-11T12:25:34.243Z,83.62
2018-04-11T12:26:34.298Z,82.96
2018-04-11T12:27:34.251Z,83.06
2018-04-11T12:28:34.249Z,83.01
2018-04-11T12:29:34.289Z,82.98
2018-04-11T12:30:34.306Z,82.85
2018-04-11T12:31:34.168Z,82.85
2018-04-11T12:32:34.095Z,83.46
2018-04-11T12:33:34.212Z,83.62
2018-04-11T12:34:34.142Z,83.57
2018-04-11T12:35:34.099Z,83.09
2018-04-11T12:36:34.216Z,83.38
2018-04-11T12:37:34.215Z,82.90
2018-04-11T12:38:34.221Z,83.33
2018-04-11T12:39:34.105Z,82.08
2018-04-11T12:40:34.196Z,82.29
2018-04-11T12:41:34.324Z,82.21
2018-04-11T12:42:34.256Z,82.06
2018-04-11T12:43:34.269Z,81.71
2018-04-11T12:44:34.206Z,82.16
2018-04-11T12:45:34.296Z,82.37
2018-04-11T12:46:34.268Z,82.19
2018-04-11T12:47:34.257Z,82.24
2018-04-11T12:48:34.329Z,82.00
2018-04-11T12:49:34.263Z,81.95
2018-04-11T12:50:34.268Z,82.77
2018-04-11T12:51:34.238Z,82.90
2018-04-11T12:52:34.311Z,83.62
2018-04-11T12:53:34.268Z,84.89